createdAt,value
2018-11-29T00:01:05.502Z,33.37
2018-11-29T00:03:34.544Z,34.37
2018-11-29T00:06:03.528Z,31.90
2018-11-29T00:08:32.571Z,34.57
2018-11-29T00:11:01.901Z,34.93
2018-11-29T00:13:30.916Z,34.53
2018-11-29T00:16:00.011Z,34.80
2018-11-29T00:18:28.975Z,34.10
2018-11-29T00:20:58.035Z,34.20
2018-11-29T00:23:27.363Z,32.20
2018-11-29T00:25:56.426Z,33.80
2018-11-29T00:28:26.911Z,33.67
2018-11-29T00:30:55.970Z,31.73
2018-11-29T00:33:25.150Z,34.87
2018-11-29T00:35:54.161Z,32.53
2018-11-29T00:38:23.171Z,33.23
2018-11-29T00:40:52.593Z,34.30
2018-11-29T00:43:21.827Z,34.13
2018-11-29T00:45:50.834Z,34.17
2018-11-29T00:48:19.762Z,34.43
2018-11-29T00:50:48.910Z,33.43
2018-11-29T00:53:18.929Z,32.10
2018-11-29T00:55:47.915Z,33.70
2018-11-29T00:58:16.873Z,34.67
2018-11-29T01:00:45.946Z,33.70
2018-11-29T01:03:16.195Z,33.10
2018-11-29T01:05:45.232Z,34.17
2018-11-29T01:08:14.207Z,33.80
2018-11-29T01:10:43.181Z,34.87
2018-11-29T01:13:12.211Z,33.13
2018-11-29T01:15:41.176Z,33.20
2018-11-29T01:18:10.131Z,33.57
2018-11-29T01:20:39.871Z,33.73
2018-11-29T01:23:08.870Z,35.80
2018-11-29T01:25:37.981Z,34.13
2018-11-29T01:28:06.989Z,33.00
2018-11-29T01:30:36.083Z,33.43
2018-11-29T01:33:05.079Z,36.83
2018-11-29T01:35:34.415Z,34.50
2018-11-29T01:38:04.168Z,35.73
2018-11-29T01:40:33.171Z,32.37
2018-11-29T01:43:02.196Z,34.77
2018-11-29T01:45:31.206Z,34.73
2018-11-29T01:48:00.200Z,34.97
2018-11-29T01:50:29.472Z,34.40
2018-11-29T01:52:59.591Z,35.07
2018-11-29T01:55:28.923Z,34.73
2018-11-29T01:57:58.432Z,34.90
2018-11-29T02:00:27.611Z,36.00
2018-11-29T02:02:56.669Z,35.07
2018-11-29T02:05:25.634Z,35.17
2018-11-29T02:07:54.751Z,35.07
2018-11-29T02:10:26.832Z,33.93
2018-11-29T02:12:56.296Z,32.90
2018-11-29T02:15:25.395Z,35.73
2018-11-29T02:17:54.388Z,34.87
2018-11-29T02:20:23.824Z,34.00
2018-11-29T02:22:52.858Z,32.40
2018-11-29T02:25:22.292Z,34.70
2018-11-29T02:27:51.478Z,32.73
2018-11-29T02:30:23.426Z,33.87
2018-11-29T02:32:52.682Z,31.90
2018-11-29T02:35:21.638Z,35.00
2018-11-29T02:37:50.642Z,35.33
2018-11-29T02:40:19.690Z,33.93
2018-11-29T02:42:49.552Z,34.67
2018-11-29T02:45:20.751Z,34.60
2018-11-29T02:47:49.886Z,34.13
2018-11-29T02:50:18.975Z,33.00
2018-11-29T02:52:49.412Z,34.70
2018-11-29T02:55:18.383Z,34.17
2018-11-29T02:57:47.556Z,33.67
2018-11-29T03:00:18.511Z,35.00
2018-11-29T03:02:48.127Z,33.27
2018-11-29T03:05:17.692Z,36.10
2018-11-29T03:07:46.640Z,33.23
2018-11-29T03:10:20.077Z,34.47
2018-11-29T03:12:49.253Z,34.70
2018-11-29T03:15:18.324Z,33.30
2018-11-29T03:17:47.472Z,33.77
2018-11-29T03:20:16.512Z,32.60
2018-11-29T03:22:45.523Z,32.93
2018-11-29T03:25:15.725Z,35.10
2018-11-29T03:27:44.885Z,30.93
2018-11-29T03:30:17.367Z,31.43
2018-11-29T03:32:46.317Z,32.53
2018-11-29T03:35:15.938Z,33.67
2018-11-29T03:37:44.964Z,33.37
2018-11-29T03:40:14.878Z,32.30
2018-11-29T03:42:44.547Z,31.43
2018-11-29T03:45:15.226Z,33.50
2018-11-29T03:47:44.546Z,33.70
2018-11-29T03:50:15.879Z,32.40
2018-11-29T03:52:44.894Z,31.23
2018-11-29T03:55:14.008Z,31.30
2018-11-29T03:57:42.952Z,29.87
2018-11-29T04:00:17.131Z,30.70
2018-11-29T04:02:47.035Z,30.17
2018-11-29T04:05:16.101Z,32.30
2018-11-29T04:07:45.134Z,30.77
2018-11-29T04:10:15.254Z,32.33
2018-11-29T04:12:44.239Z,30.43
2018-11-29T04:15:14.344Z,29.70
2018-11-29T04:17:43.970Z,30.83
2018-11-29T04:20:16.048Z,31.83
2018-11-29T04:22:45.072Z,31.97
2018-11-29T04:25:14.903Z,31.73
2018-11-29T04:27:43.881Z,30.63
2018-11-29T04:30:14.551Z,30.47
2018-11-29T04:32:43.546Z,29.90
2018-11-29T04:35:12.948Z,28.80
2018-11-29T04:37:42.296Z,29.37
2018-11-29T04:40:15.150Z,27.77
2018-11-29T04:42:45.061Z,31.73
2018-11-29T04:45:15.134Z,29.63
2018-11-29T04:47:44.166Z,31.17
2018-11-29T04:50:13.545Z,31.57
2018-11-29T04:52:42.707Z,29.73
2018-11-29T04:55:12.867Z,30.33
2018-11-29T04:57:41.957Z,27.77
2018-11-29T05:00:16.087Z,27.27
2018-11-29T05:02:45.711Z,30.63
2018-11-29T05:05:14.873Z,31.73
2018-11-29T05:07:43.822Z,29.93
2018-11-29T05:10:16.463Z,29.77
2018-11-29T05:12:46.090Z,28.93
2018-11-29T05:15:15.315Z,30.27
2018-11-29T05:17:44.294Z,30.97
2018-11-29T05:20:13.260Z,29.00
2018-11-29T05:22:42.847Z,30.87
2018-11-29T05:25:11.829Z,30.43
2018-11-29T05:27:40.777Z,30.63
2018-11-29T05:30:13.692Z,30.43
2018-11-29T05:32:43.171Z,28.20
2018-11-29T05:35:12.580Z,28.93
2018-11-29T05:37:42.471Z,30.33
2018-11-29T05:40:12.601Z,28.93
2018-11-29T05:42:41.816Z,29.87
2018-11-29T05:45:11.398Z,30.40
2018-11-29T05:47:40.393Z,30.03
2018-11-29T05:50:11.533Z,29.43
2018-11-29T05:52:41.868Z,31.13
2018-11-29T05:55:11.070Z,28.40
2018-11-29T05:57:40.170Z,29.80
2018-11-29T06:00:12.032Z,28.77
2018-11-29T06:02:41.060Z,30.13
2018-11-29T06:05:11.222Z,28.40
2018-11-29T06:07:40.208Z,27.83
2018-11-29T06:10:09.212Z,25.90
2018-11-29T06:12:38.232Z,26.73
2018-11-29T06:15:09.318Z,28.60
2018-11-29T06:17:38.293Z,26.77
2018-11-29T06:20:12.135Z,28.87
2018-11-29T06:22:41.123Z,31.17
2018-11-29T06:25:10.669Z,28.43
2018-11-29T06:27:39.627Z,30.07
2018-11-29T06:30:21.526Z,28.70
2018-11-29T06:32:52.467Z,30.33
2018-11-29T06:35:21.413Z,30.90
2018-11-29T06:37:50.821Z,29.40
2018-11-29T06:40:19.998Z,29.17
2018-11-29T06:42:49.214Z,28.73
2018-11-29T06:45:19.210Z,30.43
2018-11-29T06:47:49.299Z,31.00
2018-11-29T06:50:18.347Z,30.40
2018-11-29T06:52:49.490Z,30.83
2018-11-29T06:55:22.022Z,29.63
2018-11-29T06:57:51.571Z,30.73
2018-11-29T07:00:31.414Z,28.80
2018-11-29T07:03:00.489Z,28.33
2018-11-29T07:05:30.894Z,30.47
2018-11-29T07:07:59.932Z,30.80
2018-11-29T07:10:32.129Z,30.13
2018-11-29T07:13:01.768Z,29.00
2018-11-29T07:15:31.598Z,29.33
2018-11-29T07:18:00.701Z,28.97
2018-11-29T07:20:29.709Z,29.80
2018-11-29T07:22:59.511Z,28.73
2018-11-29T07:25:28.519Z,27.33
2018-11-29T07:27:58.422Z,28.07
2018-11-29T07:30:27.482Z,28.07
2018-11-29T07:32:57.068Z,28.50
2018-11-29T07:35:26.139Z,28.80
2018-11-29T07:37:55.314Z,29.07
2018-11-29T07:40:25.133Z,28.90
2018-11-29T07:42:55.220Z,25.80
2018-11-29T07:45:24.610Z,29.57
2018-11-29T07:47:53.993Z,27.17
2018-11-29T07:50:23.526Z,29.40
2018-11-29T07:52:52.603Z,27.73
2018-11-29T07:55:22.497Z,28.23
2018-11-29T07:57:52.629Z,27.17
2018-11-29T08:00:21.802Z,28.40
2018-11-29T08:02:50.918Z,28.73
2018-11-29T08:05:20.031Z,26.47
2018-11-29T08:07:49.375Z,26.70
2018-11-29T08:10:19.293Z,29.03
2018-11-29T08:12:48.574Z,28.47
2018-11-29T08:15:20.223Z,26.00
2018-11-29T08:17:49.288Z,27.27
2018-11-29T08:20:20.468Z,27.83
2018-11-29T08:22:49.580Z,28.40
2018-11-29T08:25:18.593Z,29.10
2018-11-29T08:27:47.682Z,25.03
2018-11-29T08:30:17.447Z,25.93
2018-11-29T08:32:46.494Z,25.73
2018-11-29T08:35:16.087Z,27.53
2018-11-29T08:37:46.326Z,26.87
2018-11-29T08:40:19.303Z,25.70
2018-11-29T08:42:48.516Z,26.57
2018-11-29T08:45:17.563Z,27.10
2018-11-29T08:47:48.328Z,27.27
2018-11-29T08:50:17.430Z,27.03
2018-11-29T08:52:46.872Z,27.10
2018-11-29T08:55:17.885Z,26.13
2018-11-29T08:57:47.893Z,26.83
2018-11-29T09:00:20.081Z,25.77
2018-11-29T09:02:49.706Z,25.13
2018-11-29T09:05:18.756Z,26.17
2018-11-29T09:07:48.584Z,25.40
2018-11-29T09:10:22.513Z,25.53
2018-11-29T09:12:52.757Z,25.47
2018-11-29T09:15:21.712Z,26.87
2018-11-29T09:17:50.726Z,25.97
2018-11-29T09:20:20.870Z,25.90
2018-11-29T09:22:50.037Z,25.00
2018-11-29T09:25:20.448Z,26.87
2018-11-29T09:27:49.492Z,26.77
2018-11-29T09:30:24.140Z,26.90
2018-11-29T09:32:54.119Z,26.33
2018-11-29T09:35:23.168Z,25.80
2018-11-29T09:37:52.246Z,25.50
2018-11-29T09:40:21.269Z,25.13
2018-11-29T09:42:50.698Z,26.80
2018-11-29T09:45:20.844Z,25.20
2018-11-29T09:47:51.952Z,25.43
2018-11-29T09:50:21.057Z,25.13
2018-11-29T09:52:50.059Z,26.33
2018-11-29T09:55:19.194Z,25.83
2018-11-29T09:57:49.679Z,25.23
2018-11-29T10:00:28.219Z,26.80
2018-11-29T10:03:08.875Z,24.90
2018-11-29T10:05:38.231Z,23.50
2018-11-29T10:08:11.885Z,26.40
2018-11-29T10:10:38.144Z,23.97
2018-11-29T10:13:07.343Z,23.57
2018-11-29T10:15:36.514Z,25.33
2018-11-29T10:18:05.973Z,25.47
2018-11-29T10:20:34.991Z,24.97
2018-11-29T10:23:04.417Z,24.20
2018-11-29T10:25:33.586Z,23.87
2018-11-29T10:28:06.044Z,25.20
2018-11-29T10:30:40.461Z,26.50
2018-11-29T10:33:10.152Z,22.17
2018-11-29T10:35:39.155Z,25.67
2018-11-29T10:38:08.177Z,25.37
2018-11-29T10:40:37.160Z,25.17
2018-11-29T10:43:06.356Z,23.73
2018-11-29T10:45:35.951Z,24.13
2018-11-29T10:48:06.802Z,23.77
2018-11-29T10:50:36.493Z,22.13
2018-11-29T10:53:06.378Z,23.47
2018-11-29T10:55:35.734Z,24.10
2018-11-29T10:58:05.214Z,22.23
2018-11-29T11:00:38.994Z,24.50
2018-11-29T11:03:13.614Z,22.77
2018-11-29T11:05:45.347Z,25.53
2018-11-29T11:08:14.418Z,24.07
2018-11-29T11:10:43.516Z,24.53
2018-11-29T11:13:12.542Z,24.63
2018-11-29T11:15:41.588Z,24.90
2018-11-29T11:18:11.838Z,25.63
2018-11-29T11:20:40.856Z,24.47
2018-11-29T11:23:10.300Z,25.53
2018-11-29T11:25:39.291Z,25.33
2018-11-29T11:28:09.199Z,24.40
2018-11-29T11:30:40.728Z,24.97
2018-11-29T11:33:09.741Z,22.50
2018-11-29T11:35:39.112Z,24.73
2018-11-29T11:38:08.145Z,24.70
2018-11-29T11:40:37.098Z,24.10
2018-11-29T11:43:07.227Z,23.73
2018-11-29T11:45:36.195Z,22.30
2018-11-29T11:48:06.060Z,22.97
2018-11-29T11:50:35.488Z,24.83
2018-11-29T11:53:05.269Z,24.93
2018-11-29T11:55:35.591Z,25.00
2018-11-29T11:58:04.585Z,25.67
2018-11-29T12:00:34.209Z,25.80
2018-11-29T12:03:06.454Z,25.63
2018-11-29T12:05:36.098Z,25.03
2018-11-29T12:08:05.330Z,24.80
2018-11-29T12:10:35.334Z,25.80
2018-11-29T12:13:04.443Z,24.27
2018-11-29T12:15:34.082Z,27.57
2018-11-29T12:18:03.375Z,25.20
2018-11-29T12:20:32.433Z,24.40
2018-11-29T12:23:01.502Z,25.27
2018-11-29T12:25:30.581Z,23.03
2018-11-29T12:27:59.715Z,23.87
2018-11-29T12:30:32.089Z,25.63
2018-11-29T12:33:03.119Z,25.03
2018-11-29T12:35:32.195Z,25.10
2018-11-29T12:38:01.302Z,25.97
2018-11-29T12:40:30.290Z,26.07
2018-11-29T12:42:59.585Z,24.50
2018-11-29T12:45:28.763Z,24.70
2018-11-29T12:47:57.883Z,25.60
2018-11-29T12:50:27.292Z,24.83
2018-11-29T12:52:56.399Z,24.73
2018-11-29T12:55:26.358Z,24.03
2018-11-29T12:58:05.286Z,23.07
2018-11-29T13:00:25.402Z,22.63
2018-11-29T13:02:56.287Z,23.23
2018-11-29T13:05:26.117Z,23.03
2018-11-29T13:07:55.243Z,24.07
2018-11-29T13:10:27.233Z,21.83
2018-11-29T13:12:58.799Z,22.37
2018-11-29T13:15:32.868Z,23.97
2018-11-29T13:18:04.510Z,22.90
2018-11-29T13:20:33.563Z,23.70
2018-11-29T13:23:02.516Z,23.50
2018-11-29T13:25:31.529Z,22.90
2018-11-29T13:28:00.532Z,24.90
2018-11-29T13:30:29.670Z,21.90
2018-11-29T13:32:58.647Z,22.57
2018-11-29T13:35:32.977Z,23.00
2018-11-29T13:38:12.251Z,21.70
2018-11-29T13:40:43.647Z,22.27
2018-11-29T13:43:12.599Z,23.00
2018-11-29T13:45:41.760Z,25.03
2018-11-29T13:48:11.633Z,22.33
2018-11-29T13:50:40.787Z,22.07
2018-11-29T13:53:09.744Z,23.10
2018-11-29T13:55:39.068Z,22.80
2018-11-29T13:58:09.214Z,19.23
2018-11-29T14:00:38.245Z,20.53
2018-11-29T14:03:09.963Z,21.70
2018-11-29T14:05:38.843Z,20.90
2018-11-29T14:08:08.899Z,20.53
2018-11-29T14:10:38.814Z,21.97
2018-11-29T14:13:08.922Z,22.17
2018-11-29T14:15:38.133Z,19.97
2018-11-29T14:18:07.637Z,20.70
2018-11-29T14:20:36.673Z,21.77
2018-11-29T14:23:05.722Z,22.93
2018-11-29T14:25:34.661Z,25.17
2018-11-29T14:28:03.645Z,24.27
2018-11-29T14:30:33.343Z,22.57
2018-11-29T14:33:02.468Z,24.90
2018-11-29T14:35:31.555Z,24.57
2018-11-29T14:38:00.643Z,25.00
2018-11-29T14:40:32.743Z,23.87
2018-11-29T14:43:01.792Z,24.47
2018-11-29T14:45:31.084Z,24.60
2018-11-29T14:48:00.260Z,25.77
2018-11-29T14:50:37.650Z,24.00
2018-11-29T14:53:07.991Z,24.73
2018-11-29T14:55:38.375Z,25.17
2018-11-29T14:58:08.720Z,22.87
2018-11-29T15:00:39.535Z,24.73
2018-11-29T15:03:11.355Z,23.03
2018-11-29T15:05:41.245Z,24.37
2018-11-29T15:08:10.858Z,25.27
2018-11-29T15:10:39.971Z,24.43
2018-11-29T15:13:13.223Z,24.33
2018-11-29T15:15:43.351Z,23.13
2018-11-29T15:18:12.609Z,23.77
2018-11-29T15:20:43.531Z,25.53
2018-11-29T15:23:14.008Z,25.53
2018-11-29T15:25:43.897Z,25.53
2018-11-29T15:28:12.974Z,30.67
2018-11-29T15:30:42.029Z,25.07
2018-11-29T15:33:11.109Z,26.77
2018-11-29T15:35:40.194Z,25.60
2018-11-29T15:38:09.250Z,26.10
2018-11-29T15:40:38.269Z,23.90
2018-11-29T15:43:08.541Z,25.27
2018-11-29T15:45:38.289Z,26.33
2018-11-29T15:48:07.376Z,24.77
2018-11-29T15:50:36.367Z,26.10
2018-11-29T15:53:06.657Z,25.70
2018-11-29T15:55:36.142Z,24.27
2018-11-29T15:58:05.661Z,25.10
2018-11-29T16:00:34.842Z,24.83
2018-11-29T16:03:05.981Z,24.13
2018-11-29T16:05:36.672Z,23.07
2018-11-29T16:08:06.533Z,24.23
2018-11-29T16:10:35.491Z,22.70
2018-11-29T16:13:05.344Z,23.10
2018-11-29T16:15:34.403Z,22.03
2018-11-29T16:18:03.405Z,21.77
2018-11-29T16:20:38.044Z,20.97
2018-11-29T16:23:08.722Z,21.03
2018-11-29T16:25:38.838Z,20.20
2018-11-29T16:28:08.558Z,20.43
2018-11-29T16:30:39.480Z,19.50
2018-11-29T16:33:41.605Z,20.47
2018-11-29T16:36:10.595Z,19.87
2018-11-29T16:38:39.719Z,20.93
2018-11-29T16:41:09.258Z,19.37
2018-11-29T16:43:38.237Z,20.03
2018-11-29T16:46:07.240Z,18.57
2018-11-29T16:48:36.205Z,17.47
2018-11-29T16:51:05.276Z,18.27
2018-11-29T16:53:34.243Z,16.20
2018-11-29T16:56:03.204Z,17.00
2018-11-29T16:58:34.453Z,17.50
2018-11-29T17:01:08.649Z,17.00
2018-11-29T17:03:32.704Z,17.47
2018-11-29T17:06:02.152Z,17.63
2018-11-29T17:08:31.160Z,16.83
2018-11-29T17:11:01.477Z,16.10
2018-11-29T17:13:30.610Z,16.20
2018-11-29T17:16:00.055Z,15.47
2018-11-29T17:18:29.121Z,16.40
2018-11-29T17:20:58.147Z,16.83
2018-11-29T17:23:27.172Z,14.93
2018-11-29T17:25:56.171Z,14.83
2018-11-29T17:28:26.071Z,14.60
2018-11-29T17:30:55.024Z,14.63
2018-11-29T17:33:24.479Z,14.50
2018-11-29T17:35:53.470Z,15.43
2018-11-29T17:38:22.413Z,15.77
2018-11-29T17:40:51.772Z,14.27
2018-11-29T17:43:20.758Z,15.60
2018-11-29T17:45:49.901Z,14.77
2018-11-29T17:48:19.051Z,15.20
2018-11-29T17:50:48.068Z,14.83
2018-11-29T17:53:17.625Z,14.43
2018-11-29T17:55:46.714Z,16.27
2018-11-29T17:58:16.547Z,16.07
2018-11-29T18:00:48.367Z,17.00
2018-11-29T18:03:19.333Z,16.23
2018-11-29T18:05:48.329Z,17.07
2018-11-29T18:08:17.428Z,16.90
2018-11-29T18:10:48.772Z,16.77
2018-11-29T18:13:21.029Z,16.27
2018-11-29T18:15:50.098Z,16.70
2018-11-29T18:18:19.393Z,16.17
2018-11-29T18:20:48.538Z,15.80
2018-11-29T18:23:17.642Z,16.87
2018-11-29T18:25:46.668Z,17.77
2018-11-29T18:28:15.678Z,18.53
2018-11-29T18:30:44.653Z,17.30
2018-11-29T18:33:14.198Z,17.97
2018-11-29T18:35:43.670Z,18.10
2018-11-29T18:38:12.658Z,17.70
2018-11-29T18:40:41.664Z,17.43
2018-11-29T18:43:11.260Z,17.63
2018-11-29T18:45:40.259Z,18.00
2018-11-29T18:48:11.218Z,17.00
2018-11-29T18:50:40.313Z,17.57
2018-11-29T18:53:09.294Z,20.20
2018-11-29T18:55:38.324Z,19.73
2018-11-29T18:58:07.620Z,18.30
2018-11-29T19:00:37.533Z,21.50
2018-11-29T19:03:07.366Z,19.07
2018-11-29T19:05:42.093Z,18.20
2018-11-29T19:08:12.755Z,15.43
2018-11-29T19:10:41.890Z,16.57
2018-11-29T19:13:12.166Z,15.07
2018-11-29T19:15:41.209Z,19.83
2018-11-29T19:18:10.923Z,19.13
2018-11-29T19:20:39.508Z,18.40
2018-11-29T19:23:08.491Z,18.50
2018-11-29T19:25:37.628Z,17.10
2018-11-29T19:28:06.906Z,18.23
2018-11-29T19:30:36.600Z,16.77
2018-11-29T19:33:17.311Z,14.53
2018-11-29T19:35:44.800Z,15.33
2018-11-29T19:38:14.099Z,17.07
2018-11-29T19:40:43.658Z,16.60
2018-11-29T19:43:12.578Z,15.60
2018-11-29T19:45:41.590Z,17.73
2018-11-29T19:48:11.241Z,17.77
2018-11-29T19:50:41.267Z,17.07
2018-11-29T19:53:21.434Z,16.67
2018-11-29T19:55:52.740Z,16.00
2018-11-29T19:58:21.897Z,17.63
2018-11-29T20:00:50.904Z,16.17
2018-11-29T20:03:19.889Z,16.03
2018-11-29T20:05:49.068Z,16.37
2018-11-29T20:08:18.053Z,17.03
2018-11-29T20:10:47.062Z,16.30
2018-11-29T20:13:18.800Z,15.97
2018-11-29T20:15:49.955Z,15.70
2018-11-29T20:18:19.014Z,15.40
2018-11-29T20:20:48.044Z,16.90
2018-11-29T20:23:16.982Z,16.07
2018-11-29T20:25:47.754Z,15.23
2018-11-29T20:28:16.767Z,15.37
2018-11-29T20:30:45.931Z,15.30
2018-11-29T20:33:14.852Z,14.37
2018-11-29T20:35:43.970Z,15.33
2018-11-29T20:38:13.098Z,13.63
2018-11-29T20:40:43.537Z,15.73
2018-11-29T20:43:13.372Z,14.20
2018-11-29T20:45:52.792Z,13.90
2018-11-29T20:48:27.431Z,12.67
2018-11-29T20:51:03.739Z,13.73
2018-11-29T20:53:36.630Z,12.90
2018-11-29T20:56:10.275Z,13.37
2018-11-29T20:58:39.831Z,14.90
2018-11-29T21:01:09.704Z,15.50
2018-11-29T21:03:38.833Z,15.17
2018-11-29T21:06:10.264Z,16.77
2018-11-29T21:08:40.850Z,15.03
2018-11-29T21:11:10.463Z,15.00
2018-11-29T21:13:39.840Z,15.60
2018-11-29T21:16:09.081Z,14.10
2018-11-29T21:18:38.350Z,14.90
2018-11-29T21:21:07.317Z,14.70
2018-11-29T21:23:38.232Z,14.70
2018-11-29T21:26:07.265Z,14.37
2018-11-29T21:28:36.218Z,14.17
2018-11-29T21:31:08.146Z,14.03
2018-11-29T21:33:37.061Z,14.87
2018-11-29T21:36:06.058Z,14.00
2018-11-29T21:38:35.666Z,14.07
2018-11-29T21:41:04.897Z,13.53
2018-11-29T21:43:34.142Z,15.37
2018-11-29T21:46:03.112Z,15.63
2018-11-29T21:48:32.141Z,14.80
2018-11-29T21:51:01.079Z,13.97
2018-11-29T21:53:30.535Z,14.53
2018-11-29T21:55:59.490Z,13.63
2018-11-29T21:58:28.416Z,13.57
2018-11-29T22:00:57.573Z,15.00
2018-11-29T22:03:26.568Z,12.70
2018-11-29T22:05:56.353Z,13.00
2018-11-29T22:08:25.316Z,14.00
2018-11-29T22:10:54.292Z,13.33
2018-11-29T22:13:23.291Z,13.70
2018-11-29T22:15:52.237Z,13.20
2018-11-29T22:18:23.352Z,11.97
2018-11-29T22:20:57.400Z,13.03
2018-11-29T22:23:27.665Z,12.17
2018-11-29T22:25:58.051Z,12.47
2018-11-29T22:28:27.013Z,12.63
2018-11-29T22:30:56.308Z,12.33
2018-11-29T22:33:25.320Z,13.00
2018-11-29T22:35:54.362Z,13.33
2018-11-29T22:38:23.382Z,13.10
2018-11-29T22:40:53.340Z,12.70
2018-11-29T22:43:22.318Z,12.17
2018-11-29T22:45:51.844Z,12.87
2018-11-29T22:48:20.817Z,12.97
2018-11-29T22:50:49.890Z,12.37
2018-11-29T22:53:18.976Z,11.00
2018-11-29T22:55:47.965Z,12.80
2018-11-29T22:58:18.581Z,12.00
2018-11-29T23:00:49.687Z,12.77
2018-11-29T23:03:19.275Z,12.87
2018-11-29T23:05:48.298Z,12.20
2018-11-29T23:08:18.067Z,11.90
2018-11-29T23:10:47.108Z,12.93
2018-11-29T23:13:16.103Z,12.33
2018-11-29T23:15:45.096Z,12.10
2018-11-29T23:18:14.213Z,12.53
2018-11-29T23:20:44.388Z,12.47
2018-11-29T23:23:13.384Z,12.43
2018-11-29T23:25:42.389Z,12.80
2018-11-29T23:28:11.332Z,12.67
2018-11-29T23:30:40.262Z,13.20
2018-11-29T23:33:09.232Z,13.10
2018-11-29T23:35:38.221Z,13.27
2018-11-29T23:38:07.578Z,13.03
2018-11-29T23:40:36.842Z,14.00
2018-11-29T23:43:06.235Z,13.87
2018-11-29T23:45:35.230Z,13.37
2018-11-29T23:48:04.199Z,14.03
2018-11-29T23:50:34.538Z,13.27
2018-11-29T23:53:03.505Z,14.30
2018-11-29T23:55:33.227Z,13.13
2018-11-29T23:58:02.134Z,12.30
